sensor_id;sensor_type;location;lat;lon;timestamp;pressure;altitude;pressure_sealevel;temperature;humidity
33496;BME280;19836;55.812;37.560;2023-12-22T00:00:24;97359.97;;;2.86;76.46
33496;BME280;19836;55.812;37.560;2023-12-22T00:02:53;97355.91;;;2.78;76.68
33496;BME280;19836;55.812;37.560;2023-12-22T00:05:19;97345.19;;;2.81;76.61
33496;BME280;19836;55.812;37.560;2023-12-22T00:07:45;97347.97;;;2.78;76.50
33496;BME280;19836;55.812;37.560;2023-12-22T00:10:12;97349.91;;;2.73;76.47
33496;BME280;19836;55.812;37.560;2023-12-22T00:12:38;97362.31;;;2.71;76.58
33496;BME280;19836;55.812;37.560;2023-12-22T00:15:05;97352.66;;;2.70;76.76
33496;BME280;19836;55.812;37.560;2023-12-22T00:17:32;97346.59;;;2.68;76.59
33496;BME280;19836;55.812;37.560;2023-12-22T00:20:00;97353.53;;;2.70;76.96
33496;BME280;19836;55.812;37.560;2023-12-22T00:22:31;97344.69;;;2.71;76.94
33496;BME280;19836;55.812;37.560;2023-12-22T00:24:58;97342.03;;;2.71;77.02
33496;BME280;19836;55.812;37.560;2023-12-22T00:27:26;97341.06;;;2.74;77.00
33496;BME280;19836;55.812;37.560;2023-12-22T00:29:53;97334.75;;;2.78;76.86
33496;BME280;19836;55.812;37.560;2023-12-22T00:32:19;97335.53;;;2.80;76.74
33496;BME280;19836;55.812;37.560;2023-12-22T00:34:48;97331.06;;;2.82;76.65
33496;BME280;19836;55.812;37.560;2023-12-22T00:37:14;97338.06;;;2.83;76.42
33496;BME280;19836;55.812;37.560;2023-12-22T00:39:40;97330.19;;;2.81;76.45
33496;BME280;19836;55.812;37.560;2023-12-22T00:42:06;97332.22;;;2.75;76.40
33496;BME280;19836;55.812;37.560;2023-12-22T00:44:32;97326.38;;;2.67;76.10
33496;BME280;19836;55.812;37.560;2023-12-22T00:47:47;97312.31;;;2.65;76.22
33496;BME280;19836;55.812;37.560;2023-12-22T00:50:41;97334.59;;;2.59;76.31
33496;BME280;19836;55.812;37.560;2023-12-22T00:54:02;97327.63;;;2.57;75.89
33496;BME280;19836;55.812;37.560;2023-12-22T00:56:58;97328.56;;;2.56;75.84
33496;BME280;19836;55.812;37.560;2023-12-22T01:01:11;97325.13;;;2.52;75.50
33496;BME280;19836;55.812;37.560;2023-12-22T01:03:43;97312.22;;;2.45;75.72
33496;BME280;19836;55.812;37.560;2023-12-22T01:06:18;97322.09;;;2.40;75.53
33496;BME280;19836;55.812;37.560;2023-12-22T01:08:49;97322.09;;;2.40;75.50
33496;BME280;19836;55.812;37.560;2023-12-22T01:11:16;97312.22;;;2.45;75.33
33496;BME280;19836;55.812;37.560;2023-12-22T01:13:45;97322.69;;;2.48;75.35
33496;BME280;19836;55.812;37.560;2023-12-22T01:16:14;97323.56;;;2.48;75.31
33496;BME280;19836;55.812;37.560;2023-12-22T01:19:03;97326.28;;;2.45;74.97
33496;BME280;19836;55.812;37.560;2023-12-22T01:21:38;97329.00;;;2.44;75.23
33496;BME280;19836;55.812;37.560;2023-12-22T01:24:21;97317.28;;;2.51;75.06
33496;BME280;19836;55.812;37.560;2023-12-22T01:26:56;97318.09;;;2.53;74.67
33496;BME280;19836;55.812;37.560;2023-12-22T01:30:33;97321.41;;;2.58;74.33
33496;BME280;19836;55.812;37.560;2023-12-22T01:33:00;97320.31;;;2.63;74.02
33496;BME280;19836;55.812;37.560;2023-12-22T01:35:29;97321.19;;;2.64;73.84
33496;BME280;19836;55.812;37.560;2023-12-22T01:37:55;97308.94;;;2.61;73.86
33496;BME280;19836;55.812;37.560;2023-12-22T01:40:25;97308.75;;;2.66;73.80
33496;BME280;19836;55.812;37.560;2023-12-22T01:42:52;97303.38;;;2.69;73.90
33496;BME280;19836;55.812;37.560;2023-12-22T01:45:18;97310.06;;;2.77;73.62
33496;BME280;19836;55.812;37.560;2023-12-22T01:47:46;97303.72;;;2.83;73.47
33496;BME280;19836;55.812;37.560;2023-12-22T01:50:14;97311.78;;;2.78;73.63
33496;BME280;19836;55.812;37.560;2023-12-22T01:52:45;97301.16;;;2.80;73.77
33496;BME280;19836;55.812;37.560;2023-12-22T01:55:13;97297.59;;;2.81;73.30
33496;BME280;19836;55.812;37.560;2023-12-22T01:57:44;97293.25;;;2.80;73.43
33496;BME280;19836;55.812;37.560;2023-12-22T02:00:11;97291.56;;;2.77;73.42
33496;BME280;19836;55.812;37.560;2023-12-22T02:02:42;97291.72;;;2.74;73.40
33496;BME280;19836;55.812;37.560;2023-12-22T02:05:11;97296.13;;;2.74;73.54
33496;BME280;19836;55.812;37.560;2023-12-22T02:07:41;97294.47;;;2.71;73.66
33496;BME280;19836;55.812;37.560;2023-12-22T02:10:08;97297.06;;;2.73;73.67
33496;BME280;19836;55.812;37.560;2023-12-22T02:12:36;97290.94;;;2.71;73.69
33496;BME280;19836;55.812;37.560;2023-12-22T02:15:03;97282.13;;;2.72;73.60
33496;BME280;19836;55.812;37.560;2023-12-22T02:20:04;97281.97;;;2.75;73.84
33496;BME280;19836;55.812;37.560;2023-12-22T02:22:35;97288.19;;;2.74;73.96
33496;BME280;19836;55.812;37.560;2023-12-22T02:25:01;97288.19;;;2.74;73.88
33496;BME280;19836;55.812;37.560;2023-12-22T02:27:50;97288.97;;;2.76;73.66
33496;BME280;19836;55.812;37.560;2023-12-22T02:30:32;97283.59;;;2.79;73.54
33496;BME280;19836;55.812;37.560;2023-12-22T02:33:04;97283.50;;;2.82;73.59
33496;BME280;19836;55.812;37.560;2023-12-22T02:35:32;97293.00;;;2.86;73.67
33496;BME280;19836;55.812;37.560;2023-12-22T02:38:00;97281.63;;;2.84;73.51
33496;BME280;19836;55.812;37.560;2023-12-22T02:40:27;97278.06;;;2.85;73.82
33496;BME280;19836;55.812;37.560;2023-12-22T02:42:54;97271.69;;;2.90;73.93
33496;BME280;19836;55.812;37.560;2023-12-22T02:45:20;97269.78;;;2.94;73.54
33496;BME280;19836;55.812;37.560;2023-12-22T02:47:47;97271.53;;;2.93;73.42
33496;BME280;19836;55.812;37.560;2023-12-22T02:50:15;97275.84;;;2.96;73.68
33496;BME280;19836;55.812;37.560;2023-12-22T02:52:43;97269.56;;;2.98;73.49
33496;BME280;19836;55.812;37.560;2023-12-22T02:55:12;97260.75;;;2.99;73.36
33496;BME280;19836;55.812;37.560;2023-12-22T02:57:38;97263.44;;;2.98;73.57
33496;BME280;19836;55.812;37.560;2023-12-22T03:00:05;97251.22;;;2.95;73.61
33496;BME280;19836;55.812;37.560;2023-12-22T03:02:57;97245.78;;;2.98;73.67
33496;BME280;19836;55.812;37.560;2023-12-22T03:05:23;97248.06;;;3.07;73.71
33496;BME280;19836;55.812;37.560;2023-12-22T03:11:42;97245.09;;;3.15;73.63
33496;BME280;19836;55.812;37.560;2023-12-22T03:14:09;97245.97;;;3.15;73.65
33496;BME280;19836;55.812;37.560;2023-12-22T03:16:40;97243.28;;;3.17;73.52
33496;BME280;19836;55.812;37.560;2023-12-22T03:19:09;97245.00;;;3.18;73.53
33496;BME280;19836;55.812;37.560;2023-12-22T03:21:38;97244.72;;;3.24;73.77
33496;BME280;19836;55.812;37.560;2023-12-22T03:24:07;97249.09;;;3.25;73.58
33496;BME280;19836;55.812;37.560;2023-12-22T03:26:36;97257.19;;;3.22;73.49
33496;BME280;19836;55.812;37.560;2023-12-22T03:29:06;97254.91;;;3.13;73.56
33496;BME280;19836;55.812;37.560;2023-12-22T03:31:32;97254.28;;;3.06;73.25
33496;BME280;19836;55.812;37.560;2023-12-22T03:34:07;97249.03;;;3.05;73.53
33496;BME280;19836;55.812;37.560;2023-12-22T03:36:36;97257.91;;;3.04;73.45
33496;BME280;19836;55.812;37.560;2023-12-22T03:39:11;97256.91;;;3.06;73.36
33496;BME280;19836;55.812;37.560;2023-12-22T04:17:31;97216.78;;;2.97;73.25
33496;BME280;19836;55.812;37.560;2023-12-22T04:19:58;97217.09;;;2.89;73.02
33496;BME280;19836;55.812;37.560;2023-12-22T04:22:23;97216.31;;;2.86;73.17
33496;BME280;19836;55.812;37.560;2023-12-22T04:24:49;97209.31;;;2.85;73.19
33496;BME280;19836;55.812;37.560;2023-12-22T04:27:15;97206.56;;;2.88;73.35
33496;BME280;19836;55.812;37.560;2023-12-22T04:29:41;97215.34;;;2.88;73.35
33496;BME280;19836;55.812;37.560;2023-12-22T04:32:07;97202.94;;;2.90;73.36
33496;BME280;19836;55.812;37.560;2023-12-22T04:34:33;97203.56;;;2.97;73.59
33496;BME280;19836;55.812;37.560;2023-12-22T04:36:59;97203.41;;;3.00;73.43
33496;BME280;19836;55.812;37.560;2023-12-22T04:44:35;97193.44;;;3.06;73.91
33496;BME280;19836;55.812;37.560;2023-12-22T04:47:04;97197.09;;;3.04;73.77
33496;BME280;19836;55.812;37.560;2023-12-22T04:49:30;97184.91;;;3.00;74.10
33496;BME280;19836;55.812;37.560;2023-12-22T04:51:57;97177.69;;;3.03;74.44
33496;BME280;19836;55.812;37.560;2023-12-22T04:54:27;97180.16;;;3.08;74.26
33496;BME280;19836;55.812;37.560;2023-12-22T04:57:04;97176.97;;;3.00;73.71
33496;BME280;19836;55.812;37.560;2023-12-22T04:59:48;97180.28;;;3.05;73.82
33496;BME280;19836;55.812;37.560;2023-12-22T05:02:18;97182.00;;;3.06;73.64
33496;BME280;19836;55.812;37.560;2023-12-22T05:04:45;97175.81;;;3.07;73.54
33496;BME280;19836;55.812;37.560;2023-12-22T05:07:16;97174.81;;;3.09;73.52
33496;BME280;19836;55.812;37.560;2023-12-22T05:09:44;97172.75;;;3.16;73.52
33496;BME280;19836;55.812;37.560;2023-12-22T05:12:13;97176.47;;;3.12;73.58
33496;BME280;19836;55.812;37.560;2023-12-22T05:14:45;97179.31;;;3.07;73.44
33496;BME280;19836;55.812;37.560;2023-12-22T05:21:14;97183.06;;;3.02;73.25
33496;BME280;19836;55.812;37.560;2023-12-22T05:27:58;97184.66;;;3.06;73.09
33496;BME280;19836;55.812;37.560;2023-12-22T05:30:28;97189.16;;;3.04;73.06
33496;BME280;19836;55.812;37.560;2023-12-22T05:32:54;97184.84;;;3.01;73.01
33496;BME280;19836;55.812;37.560;2023-12-22T05:35:24;97175.00;;;3.05;73.35
33496;BME280;19836;55.812;37.560;2023-12-22T05:38:02;97184.13;;;2.98;72.99
33496;BME280;19836;55.812;37.560;2023-12-22T05:40:32;97187.91;;;2.91;72.88
33496;BME280;19836;55.812;37.560;2023-12-22T05:43:01;97184.75;;;2.83;72.96
33496;BME280;19836;55.812;37.560;2023-12-22T05:45:58;97175.88;;;2.84;73.16
33496;BME280;19836;55.812;37.560;2023-12-22T05:48:44;97182.88;;;2.85;73.08
33496;BME280;19836;55.812;37.560;2023-12-22T05:51:13;97183.03;;;2.82;73.09
33496;BME280;19836;55.812;37.560;2023-12-22T05:53:40;97178.63;;;2.81;73.13
33496;BME280;19836;55.812;37.560;2023-12-22T05:56:20;97188.31;;;2.82;72.88
33496;BME280;19836;55.812;37.560;2023-12-22T05:58:50;97183.13;;;2.79;73.18
33496;BME280;19836;55.812;37.560;2023-12-22T06:01:17;97187.44;;;2.81;72.97
33496;BME280;19836;55.812;37.560;2023-12-22T06:03:45;97193.66;;;2.80;73.05
33496;BME280;19836;55.812;37.560;2023-12-22T06:06:12;97192.69;;;2.83;72.96
33496;BME280;19836;55.812;37.560;2023-12-22T06:08:39;97188.44;;;2.79;73.35
33496;BME280;19836;55.812;37.560;2023-12-22T06:11:05;97179.72;;;2.77;73.09
33496;BME280;19836;55.812;37.560;2023-12-22T06:13:32;97190.41;;;2.74;73.03
33496;BME280;19836;55.812;37.560;2023-12-22T06:15:59;97186.16;;;2.70;73.22
33496;BME280;19836;55.812;37.560;2023-12-22T06:18:25;97189.78;;;2.67;73.49
33496;BME280;19836;55.812;37.560;2023-12-22T06:20:52;97192.41;;;2.67;73.18
33496;BME280;19836;55.812;37.560;2023-12-22T06:23:18;97198.69;;;2.65;73.39
33496;BME280;19836;55.812;37.560;2023-12-22T06:25:44;97196.19;;;2.62;73.45
33496;BME280;19836;55.812;37.560;2023-12-22T06:28:43;97198.94;;;2.59;73.45
33496;BME280;19836;55.812;37.560;2023-12-22T06:31:17;97196.97;;;2.64;73.61
33496;BME280;19836;55.812;37.560;2023-12-22T06:33:50;97195.19;;;2.64;73.42
33496;BME280;19836;55.812;37.560;2023-12-22T06:36:22;97188.16;;;2.63;73.60
33496;BME280;19836;55.812;37.560;2023-12-22T06:39:43;97201.16;;;2.69;73.48
33496;BME280;19836;55.812;37.560;2023-12-22T06:42:53;97190.50;;;2.71;73.42
33496;BME280;19836;55.812;37.560;2023-12-22T06:56:56;97200.34;;;2.89;73.10
33496;BME280;19836;55.812;37.560;2023-12-22T06:59:35;97200.28;;;2.90;73.06
33496;BME280;19836;55.812;37.560;2023-12-22T07:02:31;97205.28;;;2.98;73.08
33496;BME280;19836;55.812;37.560;2023-12-22T07:07:53;97191.00;;;3.02;72.96
33496;BME280;19836;55.812;37.560;2023-12-22T07:10:20;97191.00;;;3.02;73.07
33496;BME280;19836;55.812;37.560;2023-12-22T07:12:46;97192.56;;;3.06;73.19
33496;BME280;19836;55.812;37.560;2023-12-22T07:15:12;97207.09;;;3.17;73.11
33496;BME280;19836;55.812;37.560;2023-12-22T07:17:39;97208.56;;;3.24;73.08
33496;BME280;19836;55.812;37.560;2023-12-22T07:20:09;97201.47;;;3.25;72.98
33496;BME280;19836;55.812;37.560;2023-12-22T07:22:50;97202.09;;;3.31;72.96
33496;BME280;19836;55.812;37.560;2023-12-22T07:25:19;97186.28;;;3.30;72.67
33496;BME280;19836;55.812;37.560;2023-12-22T07:27:46;97199.09;;;3.19;72.22
33496;BME280;19836;55.812;37.560;2023-12-22T07:30:13;97200.41;;;3.09;72.23
33496;BME280;19836;55.812;37.560;2023-12-22T07:33:46;97196.53;;;2.96;72.02
33496;BME280;19836;55.812;37.560;2023-12-22T07:37:37;97203.78;;;2.91;72.32
33496;BME280;19836;55.812;37.560;2023-12-22T07:43:14;97188.78;;;2.91;72.20
33496;BME280;19836;55.812;37.560;2023-12-22T08:03:26;97181.53;;;2.96;72.79
33496;BME280;19836;55.812;37.560;2023-12-22T08:05:53;97178.69;;;3.01;72.84
33496;BME280;19836;55.812;37.560;2023-12-22T08:12:11;97161.72;;;3.06;72.04
33496;BME280;19836;55.812;37.560;2023-12-22T08:16:13;97156.72;;;3.20;72.18
33496;BME280;19836;55.812;37.560;2023-12-22T08:18:56;97158.22;;;3.26;72.25
33496;BME280;19836;55.812;37.560;2023-12-22T08:21:26;97144.09;;;3.27;71.94
33496;BME280;19836;55.812;37.560;2023-12-22T08:23:55;97146.47;;;3.33;71.98
33496;BME280;19836;55.812;37.560;2023-12-22T08:26:21;97157.72;;;3.38;71.83
33496;BME280;19836;55.812;37.560;2023-12-22T08:28:47;97145.53;;;3.34;71.87
33496;BME280;19836;55.812;37.560;2023-12-22T08:34:31;97144.66;;;3.33;71.58
33496;BME280;19836;55.812;37.560;2023-12-22T08:36:57;97139.38;;;3.33;71.47
33496;BME280;19836;55.812;37.560;2023-12-22T08:39:49;97149.72;;;3.39;71.39
33496;BME280;19836;55.812;37.560;2023-12-22T08:48:37;97136.72;;;3.53;70.84
33496;BME280;19836;55.812;37.560;2023-12-22T08:51:05;97126.22;;;3.52;70.84
33496;BME280;19836;55.812;37.560;2023-12-22T08:53:34;97128.66;;;3.56;70.80
33496;BME280;19836;55.812;37.560;2023-12-22T08:56:03;97128.25;;;3.65;70.66
33496;BME280;19836;55.812;37.560;2023-12-22T08:58:35;97123.44;;;3.73;70.28
33496;BME280;19836;55.812;37.560;2023-12-22T09:01:04;97126.19;;;3.72;69.83
33496;BME280;19836;55.812;37.560;2023-12-22T09:03:33;97124.59;;;3.68;69.71
33496;BME280;19836;55.812;37.560;2023-12-22T09:06:01;97133.19;;;3.73;69.52
33496;BME280;19836;55.812;37.560;2023-12-22T09:08:30;97140.75;;;3.82;69.44
33496;BME280;19836;55.812;37.560;2023-12-22T09:11:01;97142.94;;;3.91;69.34
33496;BME280;19836;55.812;37.560;2023-12-22T09:13:28;97135.53;;;3.99;69.18
33496;BME280;19836;55.812;37.560;2023-12-22T09:15:59;97136.94;;;4.06;68.85
33496;BME280;19836;55.812;37.560;2023-12-22T09:18:25;97137.69;;;4.09;68.64
33496;BME280;19836;55.812;37.560;2023-12-22T09:20:55;97139.47;;;4.09;68.56
33496;BME280;19836;55.812;37.560;2023-12-22T09:23:21;97144.69;;;4.10;68.33
33496;BME280;19836;55.812;37.560;2023-12-22T09:25:47;97128.63;;;4.13;67.93
33496;BME280;19836;55.812;37.560;2023-12-22T09:28:14;97121.28;;;4.20;67.60
33496;BME280;19836;55.812;37.560;2023-12-22T09:30:48;97123.72;;;4.24;67.56
33496;BME280;19836;55.812;37.560;2023-12-22T09:33:24;97127.78;;;4.31;67.30
33496;BME280;19836;55.812;37.560;2023-12-22T09:35:53;97122.78;;;4.44;67.02
33496;BME280;19836;55.812;37.560;2023-12-22T09:38:25;97119.72;;;4.70;67.07
33496;BME280;19836;55.812;37.560;2023-12-22T09:41:01;97114.59;;;5.01;66.73
33496;BME280;19836;55.812;37.560;2023-12-22T09:43:35;97108.84;;;5.27;66.21
33496;BME280;19836;55.812;37.560;2023-12-22T09:46:07;97103.06;;;5.36;65.58
33496;BME280;19836;55.812;37.560;2023-12-22T09:48:45;97100.25;;;5.39;65.29
33496;BME280;19836;55.812;37.560;2023-12-22T09:51:19;97111.28;;;5.31;64.86
33496;BME280;19836;55.812;37.560;2023-12-22T09:53:50;97112.50;;;5.24;64.61
33496;BME280;19836;55.812;37.560;2023-12-22T09:56:23;97105.56;;;5.22;64.52
33496;BME280;19836;55.812;37.560;2023-12-22T09:58:51;97107.69;;;5.15;64.28
33496;BME280;19836;55.812;37.560;2023-12-22T10:01:20;97102.19;;;5.18;64.42
33496;BME280;19836;55.812;37.560;2023-12-22T10:03:49;97088.41;;;5.29;64.01
33496;BME280;19836;55.812;37.560;2023-12-22T10:06:22;97103.44;;;5.28;63.59
33496;BME280;19836;55.812;37.560;2023-12-22T10:09:15;97099.47;;;5.37;63.32
33496;BME280;19836;55.812;37.560;2023-12-22T10:11:44;97081.06;;;5.34;63.51
33496;BME280;19836;55.812;37.560;2023-12-22T10:14:10;97085.06;;;5.25;63.10
33496;BME280;19836;55.812;37.560;2023-12-22T10:16:36;97085.25;;;5.21;63.36
33496;BME280;19836;55.812;37.560;2023-12-22T10:19:03;97093.88;;;5.09;63.23
33496;BME280;19836;55.812;37.560;2023-12-22T10:21:30;97079.03;;;5.05;63.28
33496;BME280;19836;55.812;37.560;2023-12-22T10:24:08;97086.78;;;5.09;63.69
33496;BME280;19836;55.812;37.560;2023-12-22T10:26:58;97078.97;;;5.06;63.69
33496;BME280;19836;55.812;37.560;2023-12-22T10:29:24;97083.09;;;4.95;63.42
33496;BME280;19836;55.812;37.560;2023-12-22T10:31:51;97086.19;;;4.86;63.62
33496;BME280;19836;55.812;37.560;2023-12-22T10:34:16;97069.75;;;4.79;63.70
33496;BME280;19836;55.812;37.560;2023-12-22T10:36:44;97079.94;;;4.70;63.73
33496;BME280;19836;55.812;37.560;2023-12-22T10:39:10;97075.09;;;4.61;63.79
33496;BME280;19836;55.812;37.560;2023-12-22T10:41:37;97067.75;;;4.49;63.91
33496;BME280;19836;55.812;37.560;2023-12-22T10:44:03;97066.41;;;4.40;64.04
33496;BME280;19836;55.812;37.560;2023-12-22T10:46:34;97068.91;;;4.25;64.07
33496;BME280;19836;55.812;37.560;2023-12-22T10:49:02;97065.06;;;4.13;64.34
33496;BME280;19836;55.812;37.560;2023-12-22T10:51:33;97059.41;;;4.02;64.64
33496;BME280;19836;55.812;37.560;2023-12-22T10:54:04;97058.72;;;3.99;64.96
33496;BME280;19836;55.812;37.560;2023-12-22T10:57:02;97060.59;;;3.97;65.11
33496;BME280;19836;55.812;37.560;2023-12-22T11:00:09;97060.06;;;3.89;65.09
33496;BME280;19836;55.812;37.560;2023-12-22T11:02:46;97056.00;;;3.82;65.00
33496;BME280;19836;55.812;37.560;2023-12-22T11:05:14;97047.25;;;3.80;65.26
33496;BME280;19836;55.812;37.560;2023-12-22T11:07:49;97051.56;;;3.82;65.41
33496;BME280;19836;55.812;37.560;2023-12-22T11:10:18;97051.63;;;3.81;65.26
33496;BME280;19836;55.812;37.560;2023-12-22T11:12:47;97042.91;;;3.79;65.58
33496;BME280;19836;55.812;37.560;2023-12-22T11:15:36;97049.19;;;3.76;65.75
33496;BME280;19836;55.812;37.560;2023-12-22T11:18:35;97053.19;;;3.85;65.69
33496;BME280;19836;55.812;37.560;2023-12-22T11:21:06;97048.06;;;3.82;65.85
33496;BME280;19836;55.812;37.560;2023-12-22T11:23:33;97047.06;;;3.84;65.97
33496;BME280;19836;55.812;37.560;2023-12-22T11:26:04;97035.53;;;3.85;65.89
33496;BME280;19836;55.812;37.560;2023-12-22T11:28:33;97037.25;;;3.86;65.67
33496;BME280;19836;55.812;37.560;2023-12-22T11:31:01;97048.06;;;3.82;65.95
33496;BME280;19836;55.812;37.560;2023-12-22T11:33:29;97043.84;;;3.78;65.76
33496;BME280;19836;55.812;37.560;2023-12-22T11:35:58;97035.03;;;3.77;65.89
33496;BME280;19836;55.812;37.560;2023-12-22T11:38:25;97026.44;;;3.72;65.93
33496;BME280;19836;55.812;37.560;2023-12-22T11:40:52;97035.16;;;3.56;65.76
33496;BME280;19836;55.812;37.560;2023-12-22T11:43:19;97025.00;;;3.47;65.92
33496;BME280;19836;55.812;37.560;2023-12-22T11:45:49;97045.78;;;3.36;65.98
33496;BME280;19836;55.812;37.560;2023-12-22T11:48:15;97041.81;;;3.26;65.96
33496;BME280;19836;55.812;37.560;2023-12-22T11:50:42;97028.09;;;3.18;66.13
33496;BME280;19836;55.812;37.560;2023-12-22T11:53:25;97025.63;;;3.13;66.62
33496;BME280;19836;55.812;37.560;2023-12-22T11:56:07;97023.09;;;3.12;66.78
33496;BME280;19836;55.812;37.560;2023-12-22T12:01:02;97024.91;;;3.10;67.09
33496;BME280;19836;55.812;37.560;2023-12-22T12:03:50;97031.78;;;3.14;67.13
33496;BME280;19836;55.812;37.560;2023-12-22T12:18:22;97036.69;;;3.03;67.50
33496;BME280;19836;55.812;37.560;2023-12-22T12:21:00;97039.47;;;3.00;67.57
33496;BME280;19836;55.812;37.560;2023-12-22T12:23:27;97030.94;;;2.93;67.59
33496;BME280;19836;55.812;37.560;2023-12-22T12:25:55;97028.38;;;2.92;67.74
33496;BME280;19836;55.812;37.560;2023-12-22T12:28:36;97029.28;;;2.91;68.22
33496;BME280;19836;55.812;37.560;2023-12-22T12:31:08;97035.72;;;2.85;68.06
33496;BME280;19836;55.812;37.560;2023-12-22T12:34:10;97036.56;;;2.86;68.22
33496;BME280;19836;55.812;37.560;2023-12-22T12:37:31;97024.47;;;2.80;68.13
33496;BME280;19836;55.812;37.560;2023-12-22T12:40:06;97009.88;;;2.72;68.36
33496;BME280;19836;55.812;37.560;2023-12-22T12:43:20;97007.25;;;2.72;68.48
33496;BME280;19836;55.812;37.560;2023-12-22T12:45:47;97008.94;;;2.73;68.86
33496;BME280;19836;55.812;37.560;2023-12-22T12:48:17;96997.72;;;2.68;68.83
33496;BME280;19836;55.812;37.560;2023-12-22T12:58:15;97001.09;;;2.71;69.09
33496;BME280;19836;55.812;37.560;2023-12-22T13:01:14;96997.84;;;2.65;69.47
33496;BME280;19836;55.812;37.560;2023-12-22T13:04:01;96993.59;;;2.61;69.30
33496;BME280;19836;55.812;37.560;2023-12-22T13:06:55;97003.19;;;2.63;69.48
33496;BME280;19836;55.812;37.560;2023-12-22T13:19:11;96987.00;;;2.71;69.69
33496;BME280;19836;55.812;37.560;2023-12-22T13:21:43;96988.91;;;2.67;69.97
33496;BME280;19836;55.812;37.560;2023-12-22T13:24:28;97009.22;;;2.67;69.92
33496;BME280;19836;55.812;37.560;2023-12-22T13:28:05;96996.00;;;2.67;70.14
33496;BME280;19836;55.812;37.560;2023-12-22T13:31:13;96983.34;;;2.73;70.31
33496;BME280;19836;55.812;37.560;2023-12-22T13:34:13;96978.81;;;2.77;70.46
33496;BME280;19836;55.812;37.560;2023-12-22T13:41:11;96962.31;;;2.72;70.71
33496;BME280;19836;55.812;37.560;2023-12-22T13:44:14;96966.66;;;2.73;70.58
33496;BME280;19836;55.812;37.560;2023-12-22T13:47:17;96969.31;;;2.73;70.97
33496;BME280;19836;55.812;37.560;2023-12-22T13:49:53;96968.38;;;2.74;70.77
33496;BME280;19836;55.812;37.560;2023-12-22T13:52:33;96978.81;;;2.77;70.93
33496;BME280;19836;55.812;37.560;2023-12-22T13:58:58;96969.31;;;2.73;71.19
33496;BME280;19836;55.812;37.560;2023-12-22T14:01:42;96959.66;;;2.72;71.19
33496;BME280;19836;55.812;37.560;2023-12-22T14:04:30;96965.06;;;2.69;71.23
33496;BME280;19836;55.812;37.560;2023-12-22T14:07:01;96967.50;;;2.73;71.45
33496;BME280;19836;55.812;37.560;2023-12-22T14:09:33;96990.25;;;2.77;71.71
33496;BME280;19836;55.812;37.560;2023-12-22T14:12:00;96980.38;;;2.81;71.62
33496;BME280;19836;55.812;37.560;2023-12-22T14:14:26;96968.25;;;2.77;71.63
33496;BME280;19836;55.812;37.560;2023-12-22T14:16:55;96961.16;;;2.77;71.71
33496;BME280;19836;55.812;37.560;2023-12-22T14:19:21;96966.38;;;2.79;71.72
33496;BME280;19836;55.812;37.560;2023-12-22T14:21:48;96960.22;;;2.78;71.91
33496;BME280;19836;55.812;37.560;2023-12-22T14:24:18;96952.91;;;2.85;72.05
33496;BME280;19836;55.812;37.560;2023-12-22T14:26:56;96946.44;;;2.92;72.02
33496;BME280;19836;55.812;37.560;2023-12-22T14:29:26;96952.50;;;2.94;72.14
33496;BME280;19836;55.812;37.560;2023-12-22T14:31:52;96946.16;;;2.98;72.11
33496;BME280;19836;55.812;37.560;2023-12-22T14:34:19;96954.72;;;3.03;72.08
33496;BME280;19836;55.812;37.560;2023-12-22T14:36:52;96944.44;;;2.97;71.98
33496;BME280;19836;55.812;37.560;2023-12-22T14:39:18;96949.91;;;2.92;71.97
33496;BME280;19836;55.812;37.560;2023-12-22T14:41:44;96944.44;;;2.97;72.10
33496;BME280;19836;55.812;37.560;2023-12-22T14:44:12;96933.69;;;3.00;72.27
33496;BME280;19836;55.812;37.560;2023-12-22T14:46:39;96936.22;;;3.03;72.32
33496;BME280;19836;55.812;37.560;2023-12-22T14:49:07;96946.00;;;3.01;72.12
33496;BME280;19836;55.812;37.560;2023-12-22T14:51:37;96946.28;;;2.95;72.25
33496;BME280;19836;55.812;37.560;2023-12-22T14:54:06;96938.84;;;2.84;72.05
33496;BME280;19836;55.812;37.560;2023-12-22T14:56:37;96929.97;;;2.85;72.21
33496;BME280;19836;55.812;37.560;2023-12-22T14:59:10;96931.47;;;2.91;72.38
33496;BME280;19836;55.812;37.560;2023-12-22T15:01:37;96934.09;;;2.91;72.43
33496;BME280;19836;55.812;37.560;2023-12-22T15:04:05;96932.28;;;2.93;72.38
33496;BME280;19836;55.812;37.560;2023-12-22T15:06:36;96939.97;;;2.97;72.53
33496;BME280;19836;55.812;37.560;2023-12-22T15:09:03;96945.50;;;2.93;72.10
33496;BME280;19836;55.812;37.560;2023-12-22T15:11:32;96962.97;;;2.77;72.36
33496;BME280;19836;55.812;37.560;2023-12-22T15:13:58;96945.63;;;2.70;72.50
33496;BME280;19836;55.812;37.560;2023-12-22T15:16:25;96943.28;;;2.64;72.70
33496;BME280;19836;55.812;37.560;2023-12-22T15:18:51;96941.69;;;2.60;72.75
33496;BME280;19836;55.812;37.560;2023-12-22T15:21:21;96936.28;;;2.63;72.88
33496;BME280;19836;55.812;37.560;2023-12-22T15:23:47;96945.63;;;2.70;72.90
33496;BME280;19836;55.812;37.560;2023-12-22T15:26:24;96942.88;;;2.73;72.84
33496;BME280;19836;55.812;37.560;2023-12-22T15:28:52;96949.66;;;2.78;73.11
33496;BME280;19836;55.812;37.560;2023-12-22T15:31:18;96934.66;;;2.79;73.19
33496;BME280;19836;55.812;37.560;2023-12-22T15:33:44;96933.75;;;2.80;73.17
33496;BME280;19836;55.812;37.560;2023-12-22T15:36:19;96932.63;;;2.85;73.07
33496;BME280;19836;55.812;37.560;2023-12-22T15:38:46;96937.97;;;2.84;73.18
33496;BME280;19836;55.812;37.560;2023-12-22T15:41:12;96923.69;;;2.88;73.29
33496;BME280;19836;55.812;37.560;2023-12-22T15:43:47;96924.69;;;2.85;73.27
33496;BME280;19836;55.812;37.560;2023-12-22T15:46:13;96921.06;;;2.88;73.30
33496;BME280;19836;55.812;37.560;2023-12-22T15:48:39;96920.13;;;2.89;73.13
33496;BME280;19836;55.812;37.560;2023-12-22T15:51:10;96920.34;;;2.84;72.98
33496;BME280;19836;55.812;37.560;2023-12-22T15:53:37;96902.00;;;2.80;73.26
33496;BME280;19836;55.812;37.560;2023-12-22T15:56:08;96907.13;;;2.84;73.29
33496;BME280;19836;55.812;37.560;2023-12-22T15:58:39;96900.75;;;2.88;73.12